sensor_id;sensor_type;location;lat;lon;timestamp;P1;durP1;ratioP1;P2;durP2;ratioP2
15096;SDS011;7649;52.084;7.478;2024-03-17T00:01:19;8.87;;;4.87;;
15096;SDS011;7649;52.084;7.478;2024-03-17T00:03:45;8.67;;;4.73;;
15096;SDS011;7649;52.084;7.478;2024-03-17T00:06:12;6.40;;;4.50;;
15096;SDS011;7649;52.084;7.478;2024-03-17T00:08:40;7.97;;;4.53;;
15096;SDS011;7649;52.084;7.478;2024-03-17T00:11:08;9.17;;;4.40;;
15096;SDS011;7649;52.084;7.478;2024-03-17T00:13:35;6.20;;;4.10;;
15096;SDS011;7649;52.084;7.478;2024-03-17T00:16:05;7.90;;;4.10;;
15096;SDS011;7649;52.084;7.478;2024-03-17T00:18:31;6.37;;;3.47;;
15096;SDS011;7649;52.084;7.478;2024-03-17T00:20:59;5.50;;;3.73;;
15096;SDS011;7649;52.084;7.478;2024-03-17T00:23:25;8.70;;;3.83;;
15096;SDS011;7649;52.084;7.478;2024-03-17T00:25:55;7.07;;;4.70;;
15096;SDS011;7649;52.084;7.478;2024-03-17T00:28:22;8.17;;;5.03;;
15096;SDS011;7649;52.084;7.478;2024-03-17T00:30:50;6.93;;;3.80;;
15096;SDS011;7649;52.084;7.478;2024-03-17T00:33:16;5.93;;;3.73;;
15096;SDS011;7649;52.084;7.478;2024-03-17T00:35:44;6.90;;;4.27;;
15096;SDS011;7649;52.084;7.478;2024-03-17T00:38:11;7.07;;;4.00;;
15096;SDS011;7649;52.084;7.478;2024-03-17T00:40:38;4.50;;;3.20;;
15096;SDS011;7649;52.084;7.478;2024-03-17T00:43:07;7.23;;;5.17;;
15096;SDS011;7649;52.084;7.478;2024-03-17T00:45:36;9.20;;;4.70;;
15096;SDS011;7649;52.084;7.478;2024-03-17T00:48:03;4.20;;;3.80;;
15096;SDS011;7649;52.084;7.478;2024-03-17T00:50:31;7.30;;;5.00;;
15096;SDS011;7649;52.084;7.478;2024-03-17T00:52:58;6.97;;;4.80;;
15096;SDS011;7649;52.084;7.478;2024-03-17T00:55:25;8.20;;;4.60;;
15096;SDS011;7649;52.084;7.478;2024-03-17T00:57:52;7.27;;;4.40;;
15096;SDS011;7649;52.084;7.478;2024-03-17T01:00:21;7.63;;;4.40;;
15096;SDS011;7649;52.084;7.478;2024-03-17T01:02:48;9.07;;;5.10;;
15096;SDS011;7649;52.084;7.478;2024-03-17T01:05:15;10.00;;;5.00;;
15096;SDS011;7649;52.084;7.478;2024-03-17T01:07:42;8.10;;;5.70;;
15096;SDS011;7649;52.084;7.478;2024-03-17T01:10:12;9.83;;;5.63;;
15096;SDS011;7649;52.084;7.478;2024-03-17T01:12:39;7.10;;;4.57;;
15096;SDS011;7649;52.084;7.478;2024-03-17T01:15:06;8.50;;;5.00;;
15096;SDS011;7649;52.084;7.478;2024-03-17T01:17:35;6.73;;;4.87;;
15096;SDS011;7649;52.084;7.478;2024-03-17T01:20:02;6.97;;;4.57;;
15096;SDS011;7649;52.084;7.478;2024-03-17T01:22:29;7.47;;;4.60;;
15096;SDS011;7649;52.084;7.478;2024-03-17T01:24:56;8.33;;;5.40;;
15096;SDS011;7649;52.084;7.478;2024-03-17T01:27:22;8.83;;;5.63;;
15096;SDS011;7649;52.084;7.478;2024-03-17T01:29:50;8.27;;;5.27;;
15096;SDS011;7649;52.084;7.478;2024-03-17T01:32:16;8.03;;;5.23;;
15096;SDS011;7649;52.084;7.478;2024-03-17T01:34:46;8.63;;;5.07;;
15096;SDS011;7649;52.084;7.478;2024-03-17T01:37:12;12.30;;;5.40;;
15096;SDS011;7649;52.084;7.478;2024-03-17T01:39:40;8.87;;;4.40;;
15096;SDS011;7649;52.084;7.478;2024-03-17T01:42:07;6.67;;;4.07;;
15096;SDS011;7649;52.084;7.478;2024-03-17T01:44:34;8.17;;;4.73;;
15096;SDS011;7649;52.084;7.478;2024-03-17T01:47:01;6.40;;;4.70;;
15096;SDS011;7649;52.084;7.478;2024-03-17T01:49:28;5.80;;;4.77;;
15096;SDS011;7649;52.084;7.478;2024-03-17T01:51:57;5.83;;;4.30;;
15096;SDS011;7649;52.084;7.478;2024-03-17T01:54:23;8.07;;;4.70;;
15096;SDS011;7649;52.084;7.478;2024-03-17T01:59:27;6.20;;;4.13;;
15096;SDS011;7649;52.084;7.478;2024-03-17T02:01:54;7.03;;;4.43;;
15096;SDS011;7649;52.084;7.478;2024-03-17T02:04:21;5.57;;;4.10;;
15096;SDS011;7649;52.084;7.478;2024-03-17T02:06:48;7.60;;;3.90;;
15096;SDS011;7649;52.084;7.478;2024-03-17T02:09:16;6.00;;;3.80;;
15096;SDS011;7649;52.084;7.478;2024-03-17T02:11:45;7.03;;;3.90;;
15096;SDS011;7649;52.084;7.478;2024-03-17T02:14:12;5.40;;;4.10;;
15096;SDS011;7649;52.084;7.478;2024-03-17T02:16:39;6.33;;;4.10;;
15096;SDS011;7649;52.084;7.478;2024-03-17T02:19:06;5.30;;;4.33;;
15096;SDS011;7649;52.084;7.478;2024-03-17T02:21:33;6.50;;;4.40;;
15096;SDS011;7649;52.084;7.478;2024-03-17T02:24:01;8.80;;;4.50;;
15096;SDS011;7649;52.084;7.478;2024-03-17T02:26:28;8.33;;;4.80;;
15096;SDS011;7649;52.084;7.478;2024-03-17T02:28:55;7.80;;;4.70;;
15096;SDS011;7649;52.084;7.478;2024-03-17T02:31:22;5.40;;;4.00;;
15096;SDS011;7649;52.084;7.478;2024-03-17T02:34:04;5.93;;;4.53;;
15096;SDS011;7649;52.084;7.478;2024-03-17T02:36:32;8.07;;;4.83;;
15096;SDS011;7649;52.084;7.478;2024-03-17T02:38:58;9.43;;;4.77;;
15096;SDS011;7649;52.084;7.478;2024-03-17T02:41:44;5.97;;;4.67;;
15096;SDS011;7649;52.084;7.478;2024-03-17T02:44:12;6.27;;;4.67;;
15096;SDS011;7649;52.084;7.478;2024-03-17T02:46:39;6.37;;;5.40;;
15096;SDS011;7649;52.084;7.478;2024-03-17T02:49:06;7.07;;;4.50;;
15096;SDS011;7649;52.084;7.478;2024-03-17T02:51:42;6.60;;;4.77;;
15096;SDS011;7649;52.084;7.478;2024-03-17T02:54:10;7.43;;;4.87;;
15096;SDS011;7649;52.084;7.478;2024-03-17T02:56:37;7.17;;;4.60;;
15096;SDS011;7649;52.084;7.478;2024-03-17T02:59:06;6.50;;;4.20;;
15096;SDS011;7649;52.084;7.478;2024-03-17T03:01:33;5.93;;;4.80;;
15096;SDS011;7649;52.084;7.478;2024-03-17T03:04:01;6.40;;;4.53;;
15096;SDS011;7649;52.084;7.478;2024-03-17T03:06:28;5.40;;;4.50;;
15096;SDS011;7649;52.084;7.478;2024-03-17T03:08:55;9.53;;;5.00;;
15096;SDS011;7649;52.084;7.478;2024-03-17T03:11:23;7.37;;;4.60;;
15096;SDS011;7649;52.084;7.478;2024-03-17T03:13:51;9.87;;;4.57;;
15096;SDS011;7649;52.084;7.478;2024-03-17T03:16:19;8.60;;;4.60;;
15096;SDS011;7649;52.084;7.478;2024-03-17T03:18:47;7.70;;;4.63;;
15096;SDS011;7649;52.084;7.478;2024-03-17T03:21:14;6.67;;;4.10;;
15096;SDS011;7649;52.084;7.478;2024-03-17T03:23:42;5.50;;;4.40;;
15096;SDS011;7649;52.084;7.478;2024-03-17T03:26:10;6.83;;;4.10;;
15096;SDS011;7649;52.084;7.478;2024-03-17T03:28:37;6.87;;;4.27;;
15096;SDS011;7649;52.084;7.478;2024-03-17T03:31:04;9.33;;;4.10;;
15096;SDS011;7649;52.084;7.478;2024-03-17T03:33:33;7.20;;;4.50;;
15096;SDS011;7649;52.084;7.478;2024-03-17T03:36:06;5.87;;;4.37;;
15096;SDS011;7649;52.084;7.478;2024-03-17T03:38:34;5.73;;;3.97;;
15096;SDS011;7649;52.084;7.478;2024-03-17T03:41:05;6.93;;;4.23;;
15096;SDS011;7649;52.084;7.478;2024-03-17T03:43:33;4.70;;;3.73;;
15096;SDS011;7649;52.084;7.478;2024-03-17T03:46:01;4.77;;;3.97;;
15096;SDS011;7649;52.084;7.478;2024-03-17T03:48:28;7.03;;;4.23;;
15096;SDS011;7649;52.084;7.478;2024-03-17T03:50:57;4.67;;;3.90;;
15096;SDS011;7649;52.084;7.478;2024-03-17T03:53:25;7.20;;;4.20;;
15096;SDS011;7649;52.084;7.478;2024-03-17T03:55:52;7.50;;;4.27;;
15096;SDS011;7649;52.084;7.478;2024-03-17T03:58:20;6.00;;;3.97;;
15096;SDS011;7649;52.084;7.478;2024-03-17T04:00:47;8.60;;;4.17;;
15096;SDS011;7649;52.084;7.478;2024-03-17T04:03:14;6.90;;;4.00;;
15096;SDS011;7649;52.084;7.478;2024-03-17T04:05:42;4.97;;;3.93;;
15096;SDS011;7649;52.084;7.478;2024-03-17T04:08:10;7.20;;;3.70;;
15096;SDS011;7649;52.084;7.478;2024-03-17T04:10:38;6.47;;;3.50;;
15096;SDS011;7649;52.084;7.478;2024-03-17T04:13:05;8.53;;;3.93;;
15096;SDS011;7649;52.084;7.478;2024-03-17T04:15:33;6.97;;;3.63;;
15096;SDS011;7649;52.084;7.478;2024-03-17T04:18:00;5.77;;;3.73;;
15096;SDS011;7649;52.084;7.478;2024-03-17T04:20:27;7.67;;;3.80;;
15096;SDS011;7649;52.084;7.478;2024-03-17T04:22:55;6.37;;;4.40;;
15096;SDS011;7649;52.084;7.478;2024-03-17T04:25:24;6.63;;;3.90;;
15096;SDS011;7649;52.084;7.478;2024-03-17T04:27:51;5.60;;;3.90;;
15096;SDS011;7649;52.084;7.478;2024-03-17T04:30:19;5.37;;;3.70;;
15096;SDS011;7649;52.084;7.478;2024-03-17T04:32:47;6.97;;;4.37;;
15096;SDS011;7649;52.084;7.478;2024-03-17T04:35:15;4.13;;;3.70;;
15096;SDS011;7649;52.084;7.478;2024-03-17T04:37:43;7.53;;;4.50;;
15096;SDS011;7649;52.084;7.478;2024-03-17T04:43:40;5.23;;;4.17;;
15096;SDS011;7649;52.084;7.478;2024-03-17T04:46:07;5.17;;;3.43;;
15096;SDS011;7649;52.084;7.478;2024-03-17T04:48:37;4.70;;;4.00;;
15096;SDS011;7649;52.084;7.478;2024-03-17T04:51:04;5.67;;;3.83;;
15096;SDS011;7649;52.084;7.478;2024-03-17T04:53:32;7.77;;;4.77;;
15096;SDS011;7649;52.084;7.478;2024-03-17T04:56:00;7.10;;;5.00;;
15096;SDS011;7649;52.084;7.478;2024-03-17T04:58:28;4.73;;;3.93;;
15096;SDS011;7649;52.084;7.478;2024-03-17T05:00:56;4.83;;;3.63;;
15096;SDS011;7649;52.084;7.478;2024-03-17T05:03:24;5.00;;;3.70;;
15096;SDS011;7649;52.084;7.478;2024-03-17T05:05:57;4.07;;;3.67;;
15096;SDS011;7649;52.084;7.478;2024-03-17T05:08:26;6.37;;;4.10;;
15096;SDS011;7649;52.084;7.478;2024-03-17T05:10:55;6.43;;;3.60;;
15096;SDS011;7649;52.084;7.478;2024-03-17T05:13:23;6.43;;;4.23;;
15096;SDS011;7649;52.084;7.478;2024-03-17T05:15:50;5.40;;;4.23;;
15096;SDS011;7649;52.084;7.478;2024-03-17T05:18:19;9.10;;;4.60;;
15096;SDS011;7649;52.084;7.478;2024-03-17T05:20:48;9.10;;;5.73;;
15096;SDS011;7649;52.084;7.478;2024-03-17T05:23:24;7.80;;;6.13;;
15096;SDS011;7649;52.084;7.478;2024-03-17T05:25:52;7.40;;;5.83;;
15096;SDS011;7649;52.084;7.478;2024-03-17T05:28:19;6.67;;;5.60;;
15096;SDS011;7649;52.084;7.478;2024-03-17T05:30:47;10.17;;;6.10;;
15096;SDS011;7649;52.084;7.478;2024-03-17T05:33:15;13.47;;;9.43;;
15096;SDS011;7649;52.084;7.478;2024-03-17T05:35:49;11.03;;;8.53;;
15096;SDS011;7649;52.084;7.478;2024-03-17T05:38:18;14.10;;;7.77;;
15096;SDS011;7649;52.084;7.478;2024-03-17T05:40:55;10.53;;;7.30;;
15096;SDS011;7649;52.084;7.478;2024-03-17T05:43:25;11.23;;;6.57;;
15096;SDS011;7649;52.084;7.478;2024-03-17T05:45:53;6.77;;;6.07;;
15096;SDS011;7649;52.084;7.478;2024-03-17T05:48:20;12.37;;;6.17;;
15096;SDS011;7649;52.084;7.478;2024-03-17T05:50:51;9.73;;;5.87;;
15096;SDS011;7649;52.084;7.478;2024-03-17T05:53:18;9.87;;;6.17;;
15096;SDS011;7649;52.084;7.478;2024-03-17T05:55:46;10.10;;;5.77;;
15096;SDS011;7649;52.084;7.478;2024-03-17T05:58:13;7.87;;;5.30;;
15096;SDS011;7649;52.084;7.478;2024-03-17T06:00:41;9.73;;;5.87;;
15096;SDS011;7649;52.084;7.478;2024-03-17T06:03:09;9.67;;;5.80;;
15096;SDS011;7649;52.084;7.478;2024-03-17T06:05:37;7.03;;;5.20;;
15096;SDS011;7649;52.084;7.478;2024-03-17T06:08:07;7.77;;;5.30;;
15096;SDS011;7649;52.084;7.478;2024-03-17T06:10:36;6.33;;;5.43;;
15096;SDS011;7649;52.084;7.478;2024-03-17T06:13:05;6.83;;;5.67;;
15096;SDS011;7649;52.084;7.478;2024-03-17T06:15:37;8.63;;;5.10;;
15096;SDS011;7649;52.084;7.478;2024-03-17T06:18:04;7.20;;;5.17;;
15096;SDS011;7649;52.084;7.478;2024-03-17T06:20:34;8.00;;;5.30;;
15096;SDS011;7649;52.084;7.478;2024-03-17T06:23:02;7.47;;;5.50;;
15096;SDS011;7649;52.084;7.478;2024-03-17T06:25:31;7.70;;;5.40;;
15096;SDS011;7649;52.084;7.478;2024-03-17T06:27:58;8.27;;;5.57;;
15096;SDS011;7649;52.084;7.478;2024-03-17T06:30:27;7.13;;;6.00;;
15096;SDS011;7649;52.084;7.478;2024-03-17T06:32:54;10.27;;;5.97;;
15096;SDS011;7649;52.084;7.478;2024-03-17T06:35:22;7.77;;;5.63;;
15096;SDS011;7649;52.084;7.478;2024-03-17T06:37:52;7.40;;;5.63;;
15096;SDS011;7649;52.084;7.478;2024-03-17T06:40:19;7.00;;;5.87;;
15096;SDS011;7649;52.084;7.478;2024-03-17T06:42:48;8.07;;;5.90;;
15096;SDS011;7649;52.084;7.478;2024-03-17T06:45:16;9.07;;;5.87;;
15096;SDS011;7649;52.084;7.478;2024-03-17T06:47:46;10.97;;;6.10;;
15096;SDS011;7649;52.084;7.478;2024-03-17T06:50:13;8.00;;;6.00;;
15096;SDS011;7649;52.084;7.478;2024-03-17T06:52:41;11.50;;;6.60;;
15096;SDS011;7649;52.084;7.478;2024-03-17T06:55:08;8.53;;;6.37;;
15096;SDS011;7649;52.084;7.478;2024-03-17T06:57:38;9.83;;;5.77;;
15096;SDS011;7649;52.084;7.478;2024-03-17T07:00:07;9.30;;;5.90;;
15096;SDS011;7649;52.084;7.478;2024-03-17T07:02:39;11.63;;;6.50;;
15096;SDS011;7649;52.084;7.478;2024-03-17T07:05:11;12.63;;;6.30;;
15096;SDS011;7649;52.084;7.478;2024-03-17T07:07:40;8.77;;;6.97;;
15096;SDS011;7649;52.084;7.478;2024-03-17T07:10:07;11.73;;;7.30;;
15096;SDS011;7649;52.084;7.478;2024-03-17T07:12:36;8.97;;;7.40;;
15096;SDS011;7649;52.084;7.478;2024-03-17T07:15:04;8.77;;;6.60;;
15096;SDS011;7649;52.084;7.478;2024-03-17T07:17:33;9.87;;;7.10;;
15096;SDS011;7649;52.084;7.478;2024-03-17T07:20:00;9.43;;;6.43;;
15096;SDS011;7649;52.084;7.478;2024-03-17T07:22:28;9.53;;;6.43;;
15096;SDS011;7649;52.084;7.478;2024-03-17T07:24:56;9.57;;;6.63;;
15096;SDS011;7649;52.084;7.478;2024-03-17T07:27:26;9.03;;;6.87;;
15096;SDS011;7649;52.084;7.478;2024-03-17T07:29:54;7.90;;;6.50;;
15096;SDS011;7649;52.084;7.478;2024-03-17T07:32:21;7.97;;;6.60;;
15096;SDS011;7649;52.084;7.478;2024-03-17T07:34:50;10.47;;;7.33;;
15096;SDS011;7649;52.084;7.478;2024-03-17T07:37:17;8.33;;;7.40;;
15096;SDS011;7649;52.084;7.478;2024-03-17T07:39:45;7.97;;;6.73;;
15096;SDS011;7649;52.084;7.478;2024-03-17T07:42:15;7.40;;;6.43;;
15096;SDS011;7649;52.084;7.478;2024-03-17T07:44:43;11.00;;;6.73;;
15096;SDS011;7649;52.084;7.478;2024-03-17T07:47:10;7.97;;;6.77;;
15096;SDS011;7649;52.084;7.478;2024-03-17T07:49:38;8.40;;;6.33;;
15096;SDS011;7649;52.084;7.478;2024-03-17T07:52:07;11.33;;;6.77;;
15096;SDS011;7649;52.084;7.478;2024-03-17T07:54:34;9.30;;;6.27;;
15096;SDS011;7649;52.084;7.478;2024-03-17T07:57:02;8.53;;;6.87;;
15096;SDS011;7649;52.084;7.478;2024-03-17T07:59:30;9.93;;;6.27;;
15096;SDS011;7649;52.084;7.478;2024-03-17T08:01:58;8.33;;;6.43;;
15096;SDS011;7649;52.084;7.478;2024-03-17T08:04:25;10.03;;;6.63;;
15096;SDS011;7649;52.084;7.478;2024-03-17T08:06:52;7.27;;;6.40;;
15096;SDS011;7649;52.084;7.478;2024-03-17T08:09:21;10.20;;;6.60;;
15096;SDS011;7649;52.084;7.478;2024-03-17T08:11:49;7.23;;;6.27;;
15096;SDS011;7649;52.084;7.478;2024-03-17T08:14:16;10.87;;;6.47;;
15096;SDS011;7649;52.084;7.478;2024-03-17T08:16:43;9.07;;;6.17;;
15096;SDS011;7649;52.084;7.478;2024-03-17T08:19:11;9.80;;;6.20;;
15096;SDS011;7649;52.084;7.478;2024-03-17T08:21:38;8.23;;;6.40;;
15096;SDS011;7649;52.084;7.478;2024-03-17T08:24:07;8.00;;;6.50;;
15096;SDS011;7649;52.084;7.478;2024-03-17T08:26:36;8.77;;;6.80;;
15096;SDS011;7649;52.084;7.478;2024-03-17T08:29:05;8.53;;;6.50;;
15096;SDS011;7649;52.084;7.478;2024-03-17T08:31:32;9.80;;;6.60;;
15096;SDS011;7649;52.084;7.478;2024-03-17T08:34:00;10.10;;;6.73;;
15096;SDS011;7649;52.084;7.478;2024-03-17T08:36:27;9.40;;;6.77;;
15096;SDS011;7649;52.084;7.478;2024-03-17T08:38:55;7.80;;;6.40;;
15096;SDS011;7649;52.084;7.478;2024-03-17T08:41:24;7.90;;;6.70;;
15096;SDS011;7649;52.084;7.478;2024-03-17T08:43:52;8.13;;;6.70;;
15096;SDS011;7649;52.084;7.478;2024-03-17T08:46:20;8.23;;;6.70;;
15096;SDS011;7649;52.084;7.478;2024-03-17T08:48:48;9.10;;;7.13;;
15096;SDS011;7649;52.084;7.478;2024-03-17T08:51:14;8.47;;;7.60;;
15096;SDS011;7649;52.084;7.478;2024-03-17T08:53:42;9.90;;;7.63;;
15096;SDS011;7649;52.084;7.478;2024-03-17T08:56:10;10.23;;;7.33;;
15096;SDS011;7649;52.084;7.478;2024-03-17T08:58:37;8.13;;;6.87;;
15096;SDS011;7649;52.084;7.478;2024-03-17T09:01:06;9.30;;;6.90;;
15096;SDS011;7649;52.084;7.478;2024-03-17T09:03:34;9.90;;;6.73;;
15096;SDS011;7649;52.084;7.478;2024-03-17T09:06:01;9.60;;;7.37;;
15096;SDS011;7649;52.084;7.478;2024-03-17T09:08:29;8.57;;;7.67;;
15096;SDS011;7649;52.084;7.478;2024-03-17T09:10:58;10.37;;;7.70;;
15096;SDS011;7649;52.084;7.478;2024-03-17T09:13:25;12.87;;;7.73;;
15096;SDS011;7649;52.084;7.478;2024-03-17T09:15:53;9.30;;;7.67;;
15096;SDS011;7649;52.084;7.478;2024-03-17T09:18:23;8.97;;;7.60;;
15096;SDS011;7649;52.084;7.478;2024-03-17T09:20:57;9.37;;;7.60;;
15096;SDS011;7649;52.084;7.478;2024-03-17T09:23:25;9.17;;;6.93;;
15096;SDS011;7649;52.084;7.478;2024-03-17T09:25:56;10.70;;;7.80;;
15096;SDS011;7649;52.084;7.478;2024-03-17T09:28:24;8.10;;;7.37;;
15096;SDS011;7649;52.084;7.478;2024-03-17T09:30:52;10.13;;;7.73;;
15096;SDS011;7649;52.084;7.478;2024-03-17T09:33:20;8.97;;;7.47;;
15096;SDS011;7649;52.084;7.478;2024-03-17T09:38:33;8.87;;;7.40;;
15096;SDS011;7649;52.084;7.478;2024-03-17T09:41:00;10.73;;;7.23;;
15096;SDS011;7649;52.084;7.478;2024-03-17T09:43:28;10.00;;;7.87;;
15096;SDS011;7649;52.084;7.478;2024-03-17T09:45:55;8.83;;;7.63;;
15096;SDS011;7649;52.084;7.478;2024-03-17T09:48:23;9.17;;;7.43;;
15096;SDS011;7649;52.084;7.478;2024-03-17T09:50:53;8.30;;;7.43;;
15096;SDS011;7649;52.084;7.478;2024-03-17T09:53:22;7.93;;;7.10;;
15096;SDS011;7649;52.084;7.478;2024-03-17T09:55:52;8.67;;;6.87;;
15096;SDS011;7649;52.084;7.478;2024-03-17T09:58:19;8.43;;;7.20;;
15096;SDS011;7649;52.084;7.478;2024-03-17T10:00:47;9.60;;;7.20;;
15096;SDS011;7649;52.084;7.478;2024-03-17T10:05:59;8.80;;;7.53;;
15096;SDS011;7649;52.084;7.478;2024-03-17T10:08:26;7.30;;;6.60;;
15096;SDS011;7649;52.084;7.478;2024-03-17T10:10:56;7.50;;;6.67;;
15096;SDS011;7649;52.084;7.478;2024-03-17T10:13:24;8.40;;;6.73;;
15096;SDS011;7649;52.084;7.478;2024-03-17T10:15:51;7.57;;;6.73;;
15096;SDS011;7649;52.084;7.478;2024-03-17T10:18:22;8.03;;;6.93;;
15096;SDS011;7649;52.084;7.478;2024-03-17T10:20:49;8.20;;;6.87;;
15096;SDS011;7649;52.084;7.478;2024-03-17T10:23:21;7.00;;;6.33;;
15096;SDS011;7649;52.084;7.478;2024-03-17T10:25:49;7.00;;;6.40;;
15096;SDS011;7649;52.084;7.478;2024-03-17T10:28:18;7.27;;;6.13;;
15096;SDS011;7649;52.084;7.478;2024-03-17T10:30:56;6.27;;;5.17;;
15096;SDS011;7649;52.084;7.478;2024-03-17T10:33:25;5.40;;;4.90;;
15096;SDS011;7649;52.084;7.478;2024-03-17T10:36:00;6.10;;;5.33;;
15096;SDS011;7649;52.084;7.478;2024-03-17T10:38:30;6.03;;;5.43;;
15096;SDS011;7649;52.084;7.478;2024-03-17T10:41:01;6.40;;;5.50;;
15096;SDS011;7649;52.084;7.478;2024-03-17T10:43:30;6.73;;;6.03;;
15096;SDS011;7649;52.084;7.478;2024-03-17T10:45:58;6.40;;;5.50;;
15096;SDS011;7649;52.084;7.478;2024-03-17T10:48:26;7.07;;;5.90;;
15096;SDS011;7649;52.084;7.478;2024-03-17T10:50:58;6.60;;;5.77;;
15096;SDS011;7649;52.084;7.478;2024-03-17T10:53:28;6.70;;;6.00;;
15096;SDS011;7649;52.084;7.478;2024-03-17T10:56:00;6.47;;;5.63;;
15096;SDS011;7649;52.084;7.478;2024-03-17T10:58:34;6.77;;;6.10;;
15096;SDS011;7649;52.084;7.478;2024-03-17T11:01:03;7.03;;;6.17;;
15096;SDS011;7649;52.084;7.478;2024-03-17T11:03:31;6.70;;;6.10;;
15096;SDS011;7649;52.084;7.478;2024-03-17T11:05:59;6.77;;;6.17;;
15096;SDS011;7649;52.084;7.478;2024-03-17T11:08:29;8.60;;;6.13;;
15096;SDS011;7649;52.084;7.478;2024-03-17T11:10:57;6.40;;;5.80;;
15096;SDS011;7649;52.084;7.478;2024-03-17T11:13:25;7.63;;;6.00;;
15096;SDS011;7649;52.084;7.478;2024-03-17T11:15:54;6.97;;;6.27;;
15096;SDS011;7649;52.084;7.478;2024-03-17T11:18:36;6.77;;;6.17;;
15096;SDS011;7649;52.084;7.478;2024-03-17T11:21:06;6.77;;;6.07;;
15096;SDS011;7649;52.084;7.478;2024-03-17T11:23:34;7.03;;;6.33;;
15096;SDS011;7649;52.084;7.478;2024-03-17T11:26:04;7.10;;;6.40;;
15096;SDS011;7649;52.084;7.478;2024-03-17T11:28:47;7.40;;;6.70;;
15096;SDS011;7649;52.084;7.478;2024-03-17T11:31:35;6.97;;;6.30;;
15096;SDS011;7649;52.084;7.478;2024-03-17T11:34:06;6.93;;;6.23;;
15096;SDS011;7649;52.084;7.478;2024-03-17T11:36:34;7.83;;;6.43;;
15096;SDS011;7649;52.084;7.478;2024-03-17T11:39:02;7.37;;;6.67;;
15096;SDS011;7649;52.084;7.478;2024-03-17T11:41:35;7.10;;;6.40;;
15096;SDS011;7649;52.084;7.478;2024-03-17T11:44:15;7.53;;;6.70;;
15096;SDS011;7649;52.084;7.478;2024-03-17T11:46:45;7.10;;;6.40;;
15096;SDS011;7649;52.084;7.478;2024-03-17T11:49:16;7.47;;;6.67;;
15096;SDS011;7649;52.084;7.478;2024-03-17T11:51:46;6.93;;;6.33;;
15096;SDS011;7649;52.084;7.478;2024-03-17T11:54:14;7.40;;;6.70;;
15096;SDS011;7649;52.084;7.478;2024-03-17T11:56:44;6.90;;;6.03;;
15096;SDS011;7649;52.084;7.478;2024-03-17T11:59:11;7.00;;;6.30;;
15096;SDS011;7649;52.084;7.478;2024-03-17T12:01:39;7.23;;;6.53;;
15096;SDS011;7649;52.084;7.478;2024-03-17T12:04:07;6.30;;;5.70;;
15096;SDS011;7649;52.084;7.478;2024-03-17T12:06:34;6.57;;;5.97;;
15096;SDS011;7649;52.084;7.478;2024-03-17T12:09:08;6.90;;;6.13;;
15096;SDS011;7649;52.084;7.478;2024-03-17T12:11:36;7.53;;;6.80;;
15096;SDS011;7649;52.084;7.478;2024-03-17T12:14:13;6.37;;;5.57;;
15096;SDS011;7649;52.084;7.478;2024-03-17T12:16:47;7.13;;;5.97;;
15096;SDS011;7649;52.084;7.478;2024-03-17T12:19:18;6.90;;;6.30;;
15096;SDS011;7649;52.084;7.478;2024-03-17T12:21:47;7.13;;;6.07;;
15096;SDS011;7649;52.084;7.478;2024-03-17T12:24:15;7.90;;;6.27;;
15096;SDS011;7649;52.084;7.478;2024-03-17T12:26:43;7.23;;;6.27;;
15096;SDS011;7649;52.084;7.478;2024-03-17T12:29:23;7.80;;;5.97;;
15096;SDS011;7649;52.084;7.478;2024-03-17T12:31:54;6.73;;;6.07;;
15096;SDS011;7649;52.084;7.478;2024-03-17T12:34:22;6.60;;;6.00;;
15096;SDS011;7649;52.084;7.478;2024-03-17T12:36:51;7.43;;;6.33;;
15096;SDS011;7649;52.084;7.478;2024-03-17T12:39:19;9.63;;;7.27;;
15096;SDS011;7649;52.084;7.478;2024-03-17T12:42:03;7.47;;;6.73;;
15096;SDS011;7649;52.084;7.478;2024-03-17T12:44:30;8.33;;;7.27;;
15096;SDS011;7649;52.084;7.478;2024-03-17T12:46:58;7.43;;;6.73;;
15096;SDS011;7649;52.084;7.478;2024-03-17T12:49:27;9.43;;;7.13;;
15096;SDS011;7649;52.084;7.478;2024-03-17T12:51:54;8.47;;;7.47;;
15096;SDS011;7649;52.084;7.478;2024-03-17T12:54:22;7.03;;;6.33;;
15096;SDS011;7649;52.084;7.478;2024-03-17T12:56:50;7.87;;;7.03;;
15096;SDS011;7649;52.084;7.478;2024-03-17T12:59:39;6.97;;;5.83;;
15096;SDS011;7649;52.084;7.478;2024-03-17T13:02:24;6.77;;;5.53;;
15096;SDS011;7649;52.084;7.478;2024-03-17T13:05:07;6.63;;;5.90;;
15096;SDS011;7649;52.084;7.478;2024-03-17T13:07:38;6.87;;;5.83;;
15096;SDS011;7649;52.084;7.478;2024-03-17T13:10:07;7.77;;;6.97;;
15096;SDS011;7649;52.084;7.478;2024-03-17T13:12:35;7.33;;;6.50;;
15096;SDS011;7649;52.084;7.478;2024-03-17T13:15:03;7.50;;;6.80;;
15096;SDS011;7649;52.084;7.478;2024-03-17T13:17:31;7.37;;;6.67;;
15096;SDS011;7649;52.084;7.478;2024-03-17T13:19:59;7.60;;;6.77;;
15096;SDS011;7649;52.084;7.478;2024-03-17T13:22:29;6.47;;;5.93;;
15096;SDS011;7649;52.084;7.478;2024-03-17T13:24:57;6.90;;;6.30;;
15096;SDS011;7649;52.084;7.478;2024-03-17T13:27:25;8.63;;;6.33;;
15096;SDS011;7649;52.084;7.478;2024-03-17T13:29:52;6.67;;;6.07;;
15096;SDS011;7649;52.084;7.478;2024-03-17T13:32:20;6.63;;;6.03;;
15096;SDS011;7649;52.084;7.478;2024-03-17T13:34:47;6.93;;;6.30;;
15096;SDS011;7649;52.084;7.478;2024-03-17T13:37:22;7.07;;;6.47;;
15096;SDS011;7649;52.084;7.478;2024-03-17T13:39:51;7.77;;;6.00;;
15096;SDS011;7649;52.084;7.478;2024-03-17T13:42:18;7.40;;;6.50;;
15096;SDS011;7649;52.084;7.478;2024-03-17T13:44:46;8.37;;;6.53;;
15096;SDS011;7649;52.084;7.478;2024-03-17T13:47:14;8.97;;;6.53;;
15096;SDS011;7649;52.084;7.478;2024-03-17T13:49:43;7.73;;;6.70;;
15096;SDS011;7649;52.084;7.478;2024-03-17T13:52:09;7.27;;;6.57;;
15096;SDS011;7649;52.084;7.478;2024-03-17T13:54:37;9.03;;;6.50;;
15096;SDS011;7649;52.084;7.478;2024-03-17T13:57:06;8.87;;;6.73;;
15096;SDS011;7649;52.084;7.478;2024-03-17T13:59:33;7.73;;;6.57;;
15096;SDS011;7649;52.084;7.478;2024-03-17T14:02:01;6.97;;;6.30;;
15096;SDS011;7649;52.084;7.478;2024-03-17T14:04:30;8.00;;;6.60;;
15096;SDS011;7649;52.084;7.478;2024-03-17T14:06:57;6.37;;;5.77;;
15096;SDS011;7649;52.084;7.478;2024-03-17T14:09:24;7.83;;;6.10;;
15096;SDS011;7649;52.084;7.478;2024-03-17T14:11:52;9.83;;;6.53;;
15096;SDS011;7649;52.084;7.478;2024-03-17T14:14:20;6.47;;;5.87;;
15096;SDS011;7649;52.084;7.478;2024-03-17T14:16:48;7.07;;;6.30;;
15096;SDS011;7649;52.084;7.478;2024-03-17T14:19:15;8.10;;;6.60;;
15096;SDS011;7649;52.084;7.478;2024-03-17T14:21:42;6.60;;;6.00;;
15096;SDS011;7649;52.084;7.478;2024-03-17T14:24:10;7.03;;;6.33;;
15096;SDS011;7649;52.084;7.478;2024-03-17T14:26:37;8.17;;;6.93;;
15096;SDS011;7649;52.084;7.478;2024-03-17T14:29:04;6.67;;;6.07;;
15096;SDS011;7649;52.084;7.478;2024-03-17T14:31:33;6.60;;;6.00;;
15096;SDS011;7649;52.084;7.478;2024-03-17T14:34:02;6.17;;;5.57;;
15096;SDS011;7649;52.084;7.478;2024-03-17T14:36:30;7.17;;;6.43;;
15096;SDS011;7649;52.084;7.478;2024-03-17T14:38:58;6.43;;;5.83;;
15096;SDS011;7649;52.084;7.478;2024-03-17T14:41:27;5.60;;;5.10;;
15096;SDS011;7649;52.084;7.478;2024-03-17T14:43:55;6.63;;;5.30;;
15096;SDS011;7649;52.084;7.478;2024-03-17T14:46:23;6.77;;;5.80;;
15096;SDS011;7649;52.084;7.478;2024-03-17T14:48:54;6.30;;;5.70;;
15096;SDS011;7649;52.084;7.478;2024-03-17T14:51:23;6.37;;;5.77;;
15096;SDS011;7649;52.084;7.478;2024-03-17T14:53:50;6.13;;;5.33;;
15096;SDS011;7649;52.084;7.478;2024-03-17T14:56:18;6.90;;;5.47;;
15096;SDS011;7649;52.084;7.478;2024-03-17T14:58:48;5.73;;;5.23;;
15096;SDS011;7649;52.084;7.478;2024-03-17T15:01:16;5.70;;;5.20;;
15096;SDS011;7649;52.084;7.478;2024-03-17T15:03:44;5.37;;;4.97;;
15096;SDS011;7649;52.084;7.478;2024-03-17T15:06:14;5.70;;;5.13;;
15096;SDS011;7649;52.084;7.478;2024-03-17T15:08:43;6.27;;;5.67;;
15096;SDS011;7649;52.084;7.478;2024-03-17T15:11:11;7.70;;;6.30;;
15096;SDS011;7649;52.084;7.478;2024-03-17T15:13:37;7.03;;;5.50;;
15096;SDS011;7649;52.084;7.478;2024-03-17T15:16:07;5.70;;;5.20;;
15096;SDS011;7649;52.084;7.478;2024-03-17T15:18:34;6.03;;;5.40;;
15096;SDS011;7649;52.084;7.478;2024-03-17T15:21:02;8.23;;;6.07;;